Startpagina
METAR-TAF:

METAR-TAF

Vliegvelden :

Alice Springs, Australië

breedte: 23-48S, lengte: 133-53E, hoogte: 545 m

Actueel weer

Dit bericht is 31 minuten geleden gemaakt, om 13:30 UTC
Wind 11 kt uit het oostzuidoosten
Temperatuur 31°C
Vochtigheid 22%
Druk 1011 hPa
Zicht 10 km of meer

METAR: YBAS 231330Z AUTO 12011KT 9999 // NCD 31/07 Q1011 RF00.0/000.0

Tijdstip: 23:31 (14:01 UTC)

Verwachting

Dit bericht is 2 uur en het 52 minuten geleden gemaakt, om 11:09 UTC
Verwachting geldig van 23 om 12 UTC tot 24 om 12 UTC
Wind 14 kt uit het zuidoosten
Zicht 10 km of meer
geen wolken onder 1500 m en geen cumulonimbus
Van 23 om 2000 UTC
Wind 20 kt uit het zuidoosten
Zicht 10 km of meer
geen wolken onder 1500 m en geen cumulonimbus
Van 24 om 0400 UTC
Wind 12 kt uit het oostzuidoosten
Zicht 10 km of meer
geen wolken onder 1500 m en geen cumulonimbus

TAF: YBAS 231109Z 2312/2412 14014KT CAVOK FM232000 14020KT CAVOK FM240400 12012KT CAVOK

Waarnemingen en weersverwachtingen van meer dan 4000 vliegvelden (METAR en TAF).

De beschikbare stations zijn de gele en rode punten op de kaart.

Ga met uw muis naar het station om de naam te zien.

Klik dan om waarnemingen en weersverwachtingen te zien.

kaart wijzigen: klik op de groene knoppen met een zwart kruis om in te zoomen, op de groene knop met een streepje om uit te zoomen of op de groene pijlen voor aangrenzende kaarten.


METAR-TAF: